Time;durP1;ratioP1;P1;durP2;ratioP2;P2;SDS_P1;SDS_P2;PMS_P1;PMS_P2;Temp;Humidity;BMP_temperature;BMP_pressure;BME280_temperature;BME280_humidity;BME280_pressure;Samples;Min_cycle;Max_cycle;Signal;HPM_P1;HPM_P2
2022/01/31 00:01:07;;;;;;;;;;;3.80;99.90;;;;;;4924425;29;19955;-86
2022/01/31 00:03:34;;;;;;;;;;;3.70;99.90;;;;;;4924076;29;19963;-89
2022/01/31 00:06:00;;;;;;;;;;;3.80;99.90;;;;;;4917533;29;20105;-89
2022/01/31 00:08:26;;;;;;;;;;;3.70;99.90;;;;;;4920930;29;19945;-88
2022/01/31 00:10:52;;;;;;;;;;;3.70;99.90;;;;;;4924353;29;19956;-86
2022/01/31 00:13:22;;;;;;;;;;;3.80;99.90;;;;;;4918413;29;19954;-89
2022/01/31 00:15:54;;;;;;;;;;;3.70;99.90;;;;;;4927830;29;19983;-88
2022/01/31 00:18:19;;;;;;;;;;;3.70;99.90;;;;;;4930647;29;19969;-85
2022/01/31 00:20:45;;;;;;;;;;;3.70;99.90;;;;;;4917144;29;19979;-89
2022/01/31 00:23:10;;;;;;;;;;;4.20;99.90;;;;;;4917617;29;19964;-84
2022/01/31 00:25:36;;;;;;;;;;;3.70;99.90;;;;;;4924454;29;20061;-87
2022/01/31 00:28:01;;;;;;;;;;;3.70;99.90;;;;;;4924273;29;20430;-89
2022/01/31 00:30:27;;;;;;;;;;;3.70;99.90;;;;;;4932963;29;20011;-88
2022/01/31 00:32:52;;;;;;;;;;;3.70;99.90;;;;;;4920091;29;19964;-86
2022/01/31 00:35:18;;;;;;;;;;;3.70;99.90;;;;;;4924595;29;19995;-88
2022/01/31 00:37:43;;;;;;;;;;;3.70;99.90;;;;;;4924272;29;19947;-87
2022/01/31 00:40:09;;;;;;;;;;;3.70;99.90;;;;;;4915984;29;19986;-85
2022/01/31 00:42:35;;;;;;;;;;;3.70;99.90;;;;;;4921638;29;20455;-84
2022/01/31 00:47:59;;;;;;;;;;;3.70;99.90;;;;;;4914860;29;20325;-85
2022/01/31 00:50:24;;;;;;;;;;;3.70;99.90;;;;;;4912998;29;20000;-86
2022/01/31 00:52:50;;;;;;;;;;;3.70;99.90;;;;;;4918535;29;19955;-87
2022/01/31 00:55:15;;;;;;;;;;;3.70;99.90;;;;;;4923865;29;19951;-84
2022/01/31 00:57:41;;;;;;;;;;;3.70;99.90;;;;;;4920611;29;20422;-84
2022/01/31 01:00:08;;;;;;;;;;;3.70;99.90;;;;;;4920229;29;19945;-83
2022/01/31 01:02:33;;;;;;;;;;;3.70;99.90;;;;;;4930120;29;20061;-88
2022/01/31 01:04:59;;;;;;;;;;;3.80;99.90;;;;;;4927859;29;20022;-84
2022/01/31 01:07:24;;;;;;;;;;;3.70;99.90;;;;;;4921665;29;20334;-87
2022/01/31 01:09:50;;;;;;;;;;;3.70;99.90;;;;;;4928693;29;19958;-87
2022/01/31 01:12:17;;;;;;;;;;;3.70;99.90;;;;;;4924142;29;20012;-85
2022/01/31 01:14:44;;;;;;;;;;;3.70;99.90;;;;;;4932663;29;20001;-87
2022/01/31 01:17:09;;;;;;;;;;;3.70;99.90;;;;;;4924620;29;19948;-86
2022/01/31 01:19:35;;;;;;;;;;;3.60;99.90;;;;;;4925737;29;20456;-85
2022/01/31 01:22:01;;;;;;;;;;;4.70;99.90;;;;;;4922460;29;20008;-87
2022/01/31 01:24:26;;;;;;;;;;;3.60;99.90;;;;;;4922139;29;19966;-86
2022/01/31 01:26:53;;;;;;;;;;;3.70;99.90;;;;;;4921820;29;20391;-84
2022/01/31 01:29:19;;;;;;;;;;;3.60;99.90;;;;;;4921823;29;19970;-87
2022/01/31 01:31:46;;;;;;;;;;;3.60;99.90;;;;;;4921516;29;20319;-85
2022/01/31 01:34:12;;;;;;;;;;;3.60;99.90;;;;;;4917573;29;20037;-85
2022/01/31 01:36:38;;;;;;;;;;;3.60;99.90;;;;;;4929607;29;20032;-86
2022/01/31 01:39:07;;;;;;;;;;;3.60;99.90;;;;;;4921770;29;20373;-87
2022/01/31 01:41:33;;;;;;;;;;;3.60;99.90;;;;;;4926253;29;20055;-85
2022/01/31 01:43:58;;;;;;;;;;;3.60;99.90;;;;;;4922554;29;20060;-84
2022/01/31 01:46:23;;;;;;;;;;;3.60;99.90;;;;;;4922478;29;19982;-87
2022/01/31 01:48:49;;;;;;;;;;;3.50;99.90;;;;;;4924122;29;20031;-84
2022/01/31 01:51:15;;;;;;;;;;;3.50;99.90;;;;;;4920751;29;19958;-84
2022/01/31 01:53:40;;;;;;;;;;;3.50;99.90;;;;;;4916069;29;19952;-84
2022/01/31 01:56:06;;;;;;;;;;;3.40;99.90;;;;;;4924666;29;20282;-82
2022/01/31 01:58:38;;;;;;;;;;;3.40;99.90;;;;;;4921017;29;20090;-82
2022/01/31 02:01:05;;;;;;;;;;;3.40;99.90;;;;;;4924724;29;20107;-85
2022/01/31 02:03:31;;;;;;;;;;;3.40;99.90;;;;;;4932291;29;19968;-80
2022/01/31 02:05:57;;;;;;;;;;;3.30;99.90;;;;;;4925075;29;19954;-83
2022/01/31 02:08:23;;;;;;;;;;;3.30;99.90;;;;;;4923335;29;19942;-84
2022/01/31 02:10:50;;;;;;;;;;;3.30;99.90;;;;;;4925052;29;19951;-85
2022/01/31 02:13:15;;;;;;;;;;;3.30;99.90;;;;;;4928510;29;20006;-84
2022/01/31 02:15:43;;;;;;;;;;;3.20;99.90;;;;;;4921818;29;19973;-85
2022/01/31 02:18:09;;;;;;;;;;;3.20;99.90;;;;;;4930391;29;19969;-83
2022/01/31 02:20:35;;;;;;;;;;;3.20;99.90;;;;;;4924058;29;19951;-83
2022/01/31 02:23:02;;;;;;;;;;;3.10;99.90;;;;;;4923547;29;19978;-84
2022/01/31 02:25:28;;;;;;;;;;;3.10;99.90;;;;;;4923634;29;19948;-83
2022/01/31 02:27:53;;;;;;;;;;;3.10;99.90;;;;;;4929383;29;19949;-84
2022/01/31 02:30:19;;;;;;;;;;;3.00;99.90;;;;;;4923300;29;20018;-82
2022/01/31 02:32:45;;;;;;;;;;;3.00;99.90;;;;;;4922877;29;20374;-83
2022/01/31 02:35:13;;;;;;;;;;;3.00;99.90;;;;;;4933375;29;20047;-85
2022/01/31 02:37:39;;;;;;;;;;;2.90;99.90;;;;;;4924563;29;19954;-87
2022/01/31 02:40:05;;;;;;;;;;;2.80;99.90;;;;;;4925981;29;19946;-84
2022/01/31 02:42:31;;;;;;;;;;;2.80;99.90;;;;;;4925097;29;20426;-84
2022/01/31 02:44:56;;;;;;;;;;;2.80;99.90;;;;;;4928092;29;19947;-84
2022/01/31 02:47:25;;;;;;;;;;;2.70;99.90;;;;;;4932283;29;19955;-85
2022/01/31 02:49:57;;;;;;;;;;;2.70;99.90;;;;;;4918906;29;19948;-83
2022/01/31 02:52:24;;;;;;;;;;;2.60;99.90;;;;;;4919327;29;19995;-85
2022/01/31 02:54:50;;;;;;;;;;;2.60;99.90;;;;;;4923609;29;19955;-85
2022/01/31 02:57:15;;;;;;;;;;;2.60;99.90;;;;;;4918153;29;19952;-86
2022/01/31 02:59:41;;;;;;;;;;;2.60;99.90;;;;;;4923319;29;19943;-85
2022/01/31 03:02:06;;;;;;;;;;;2.60;99.90;;;;;;4929869;29;20042;-88
2022/01/31 03:04:32;;;;;;;;;;;2.70;99.90;;;;;;4928107;29;19961;-86
2022/01/31 03:06:57;;;;;;;;;;;2.70;99.90;;;;;;4922314;29;20369;-86
2022/01/31 03:09:23;;;;;;;;;;;2.70;99.90;;;;;;4918047;29;19954;-85
2022/01/31 03:11:50;;;;;;;;;;;2.70;99.90;;;;;;4924959;29;20009;-85
2022/01/31 03:14:16;;;;;;;;;;;2.70;99.90;;;;;;4935950;29;20054;-87
2022/01/31 03:16:42;;;;;;;;;;;2.70;99.90;;;;;;4930897;29;20379;-87
2022/01/31 03:19:08;;;;;;;;;;;2.80;99.90;;;;;;4926862;29;20017;-87
2022/01/31 03:21:34;;;;;;;;;;;2.80;99.90;;;;;;4947392;29;19944;-88
2022/01/31 03:23:59;;;;;;;;;;;2.90;99.90;;;;;;4920733;29;19963;-87
2022/01/31 03:26:25;;;;;;;;;;;2.90;99.90;;;;;;4915509;29;20420;-87
2022/01/31 03:28:52;;;;;;;;;;;3.00;99.90;;;;;;4924177;29;19946;-86
2022/01/31 03:31:18;;;;;;;;;;;3.00;99.90;;;;;;4924131;29;19939;-86
2022/01/31 03:33:45;;;;;;;;;;;3.00;99.90;;;;;;4917133;29;19946;-86
2022/01/31 03:36:11;;;;;;;;;;;3.10;99.90;;;;;;4926434;29;20385;-88
2022/01/31 03:38:40;;;;;;;;;;;3.20;99.90;;;;;;4923667;29;20030;-89
2022/01/31 03:41:09;;;;;;;;;;;3.20;99.90;;;;;;4932174;29;20126;-87
2022/01/31 03:43:35;;;;;;;;;;;3.30;99.90;;;;;;4927305;29;20065;-87
2022/01/31 03:46:00;;;;;;;;;;;3.40;99.90;;;;;;4938405;29;19992;-89
2022/01/31 03:48:28;;;;;;;;;;;3.40;99.90;;;;;;4925829;29;19946;-85
2022/01/31 03:50:54;;;;;;;;;;;3.50;99.90;;;;;;4926767;29;19960;-86
2022/01/31 03:53:20;;;;;;;;;;;3.60;99.90;;;;;;4923522;29;20048;-84
2022/01/31 03:55:45;;;;;;;;;;;3.60;99.90;;;;;;4926020;29;20375;-85
2022/01/31 03:58:11;;;;;;;;;;;3.70;99.90;;;;;;4929145;29;20389;-87
2022/01/31 04:00:36;;;;;;;;;;;3.60;99.90;;;;;;4918233;29;19989;-86
2022/01/31 04:03:02;;;;;;;;;;;3.80;99.90;;;;;;4922003;29;19966;-84
2022/01/31 04:05:28;;;;;;;;;;;3.90;99.90;;;;;;4922759;29;20033;-86
2022/01/31 04:07:53;;;;;;;;;;;4.00;99.90;;;;;;4920140;29;19945;-85
2022/01/31 04:10:19;;;;;;;;;;;4.10;99.90;;;;;;4923282;29;19952;-85
2022/01/31 04:12:44;;;;;;;;;;;4.20;99.90;;;;;;4925048;29;19956;-85
2022/01/31 04:15:10;;;;;;;;;;;4.20;99.90;;;;;;4924758;29;19947;-84
2022/01/31 04:17:37;;;;;;;;;;;4.30;99.90;;;;;;4922115;29;20121;-85
2022/01/31 04:20:04;;;;;;;;;;;4.30;99.90;;;;;;4921967;29;19957;-87
2022/01/31 04:22:33;;;;;;;;;;;4.40;99.90;;;;;;4921011;29;20035;-86
2022/01/31 04:25:02;;;;;;;;;;;4.40;99.90;;;;;;4921529;29;20096;-86
2022/01/31 04:27:32;;;;;;;;;;;4.40;99.90;;;;;;4923402;29;19949;-86
2022/01/31 04:29:58;;;;;;;;;;;4.50;99.90;;;;;;4920228;29;20032;-84
2022/01/31 04:32:23;;;;;;;;;;;4.50;99.90;;;;;;4916314;29;20349;-83
2022/01/31 04:34:49;;;;;;;;;;;4.60;99.90;;;;;;4922456;29;19949;-86
2022/01/31 04:37:14;;;;;;;;;;;4.50;99.90;;;;;;4921048;29;19952;-85
2022/01/31 04:39:40;;;;;;;;;;;4.50;99.90;;;;;;4924510;29;19949;-84
2022/01/31 04:42:06;;;;;;;;;;;4.50;99.90;;;;;;4922188;29;19945;-84
2022/01/31 04:44:32;;;;;;;;;;;4.50;99.90;;;;;;4917328;29;20051;-84
2022/01/31 04:46:57;;;;;;;;;;;4.50;99.90;;;;;;4925169;29;19954;-84
2022/01/31 04:49:23;;;;;;;;;;;4.50;99.90;;;;;;4927729;29;19950;-83
2022/01/31 04:51:49;;;;;;;;;;;4.50;99.90;;;;;;4940135;29;19949;-85
2022/01/31 04:54:15;;;;;;;;;;;4.50;99.90;;;;;;4921558;29;19952;-84
2022/01/31 04:56:42;;;;;;;;;;;4.50;99.90;;;;;;4922530;29;19946;-84
2022/01/31 04:59:08;;;;;;;;;;;4.50;99.90;;;;;;4924705;29;19950;-85
2022/01/31 05:01:34;;;;;;;;;;;4.50;99.90;;;;;;4922310;29;19973;-84
2022/01/31 05:04:00;;;;;;;;;;;4.50;99.90;;;;;;4918356;29;20362;-84
2022/01/31 05:06:34;;;;;;;;;;;4.50;99.90;;;;;;4921150;29;20344;-84
2022/01/31 05:08:59;;;;;;;;;;;4.50;99.90;;;;;;4926426;29;19948;-87
2022/01/31 05:11:25;;;;;;;;;;;4.50;99.90;;;;;;4923939;29;19961;-85
2022/01/31 05:13:50;;;;;;;;;;;4.50;99.90;;;;;;4919415;29;19954;-86
2022/01/31 05:16:16;;;;;;;;;;;4.50;99.90;;;;;;4918796;29;20286;-86
2022/01/31 05:18:44;;;;;;;;;;;4.50;99.90;;;;;;4919025;29;20436;-84
2022/01/31 05:21:10;;;;;;;;;;;5.10;99.90;;;;;;4926737;29;19996;-87
2022/01/31 05:23:35;;;;;;;;;;;4.50;99.90;;;;;;4929877;29;20003;-86
2022/01/31 05:26:01;;;;;;;;;;;4.50;99.90;;;;;;4921263;29;20447;-89
2022/01/31 05:28:27;;;;;;;;;;;4.40;99.90;;;;;;4920217;29;20735;-88
2022/01/31 05:30:52;;;;;;;;;;;4.40;99.90;;;;;;4927310;28;19950;-86
2022/01/31 05:33:18;;;;;;;;;;;4.40;99.90;;;;;;4919054;29;19962;-87
2022/01/31 05:35:45;;;;;;;;;;;4.30;99.90;;;;;;4921266;29;19951;-85
2022/01/31 05:38:11;;;;;;;;;;;4.30;99.90;;;;;;4921284;29;20028;-85
2022/01/31 05:40:36;;;;;;;;;;;4.30;99.90;;;;;;4925442;29;20051;-85
2022/01/31 05:43:02;;;;;;;;;;;4.30;99.90;;;;;;4930397;29;20402;-85
2022/01/31 05:45:28;;;;;;;;;;;4.20;99.90;;;;;;4928349;29;20015;-85
2022/01/31 05:47:54;;;;;;;;;;;4.20;99.90;;;;;;4931433;29;20357;-85
2022/01/31 05:50:19;;;;;;;;;;;4.20;99.90;;;;;;4932132;29;19954;-86
2022/01/31 05:52:45;;;;;;;;;;;4.30;99.90;;;;;;4926926;29;20173;-87
2022/01/31 05:55:10;;;;;;;;;;;4.30;99.90;;;;;;4930733;29;20040;-84
2022/01/31 05:57:36;;;;;;;;;;;4.30;99.90;;;;;;4929256;29;20033;-84
2022/01/31 06:00:03;;;;;;;;;;;4.30;99.90;;;;;;4930191;29;20325;-84
2022/01/31 06:02:29;;;;;;;;;;;4.30;99.90;;;;;;4931561;29;20009;-87
2022/01/31 06:04:54;;;;;;;;;;;4.30;99.90;;;;;;4928892;29;20359;-85
2022/01/31 06:07:20;;;;;;;;;;;4.40;99.90;;;;;;4926055;29;20365;-87
2022/01/31 06:09:45;;;;;;;;;;;4.30;99.90;;;;;;4928696;29;19954;-86
2022/01/31 06:12:12;;;;;;;;;;;4.40;99.90;;;;;;4927283;29;19946;-85
2022/01/31 06:14:37;;;;;;;;;;;4.40;99.90;;;;;;4928043;29;19952;-84
2022/01/31 06:17:03;;;;;;;;;;;4.40;99.90;;;;;;4924760;29;20030;-85
2022/01/31 06:19:29;;;;;;;;;;;4.40;99.90;;;;;;4922821;29;20017;-86
2022/01/31 06:21:55;;;;;;;;;;;4.40;99.90;;;;;;4921025;29;19953;-84
2022/01/31 06:24:20;;;;;;;;;;;4.40;99.90;;;;;;4920901;29;19973;-86
2022/01/31 06:26:46;;;;;;;;;;;4.40;99.90;;;;;;4946813;29;20014;-85
2022/01/31 06:29:12;;;;;;;;;;;4.40;99.90;;;;;;4930384;29;20822;-87
2022/01/31 06:31:38;;;;;;;;;;;4.40;99.90;;;;;;4928263;29;20102;-86
2022/01/31 06:34:04;;;;;;;;;;;4.40;99.90;;;;;;4932385;29;20452;-86
2022/01/31 06:36:29;;;;;;;;;;;4.40;99.90;;;;;;4924305;29;20043;-85
2022/01/31 06:38:55;;;;;;;;;;;4.40;99.90;;;;;;4931786;29;20086;-85
2022/01/31 06:41:22;;;;;;;;;;;4.50;99.90;;;;;;4928169;29;19987;-84
2022/01/31 06:43:48;;;;;;;;;;;4.50;99.90;;;;;;4924850;29;19967;-84
2022/01/31 06:46:14;;;;;;;;;;;4.50;99.90;;;;;;4917333;29;20043;-84
2022/01/31 06:48:39;;;;;;;;;;;4.50;99.90;;;;;;4920386;29;20026;-84
2022/01/31 06:51:05;;;;;;;;;;;4.50;99.90;;;;;;4928256;29;20022;-84
2022/01/31 06:53:30;;;;;;;;;;;4.50;99.90;;;;;;4921107;29;20387;-85
2022/01/31 06:55:56;;;;;;;;;;;4.50;99.90;;;;;;4931162;29;20412;-85
2022/01/31 06:58:22;;;;;;;;;;;4.60;99.90;;;;;;4926583;29;19990;-85
2022/01/31 07:00:48;;;;;;;;;;;4.60;99.90;;;;;;4926955;29;19956;-85
2022/01/31 07:03:13;;;;;;;;;;;4.60;99.90;;;;;;4948909;28;20343;-85
2022/01/31 07:05:40;;;;;;;;;;;4.60;99.90;;;;;;4930721;29;19954;-85
2022/01/31 07:08:06;;;;;;;;;;;4.60;99.90;;;;;;4925019;29;20261;-85
2022/01/31 07:10:32;;;;;;;;;;;4.70;99.90;;;;;;4940304;29;19947;-87
2022/01/31 07:12:59;;;;;;;;;;;4.70;99.90;;;;;;4943572;29;20464;-86
2022/01/31 07:15:24;;;;;;;;;;;4.70;99.90;;;;;;4933618;29;19962;-86
2022/01/31 07:17:50;;;;;;;;;;;4.70;99.90;;;;;;4921555;29;19976;-86
2022/01/31 07:20:36;;;;;;;;;;;4.70;99.90;;;;;;4937956;29;19977;-87
2022/01/31 07:23:08;;;;;;;;;;;5.40;99.90;;;;;;4939450;29;19958;-89
2022/01/31 07:25:37;;;;;;;;;;;4.70;99.90;;;;;;4926072;29;20038;-87
2022/01/31 07:28:04;;;;;;;;;;;4.60;99.90;;;;;;4944348;29;19951;-87
2022/01/31 07:30:30;;;;;;;;;;;4.70;99.90;;;;;;4945377;29;19944;-86
2022/01/31 07:32:56;;;;;;;;;;;4.80;99.90;;;;;;4933238;29;19951;-87
2022/01/31 07:35:22;;;;;;;;;;;4.80;99.90;;;;;;4921093;29;19962;-87
2022/01/31 07:37:47;;;;;;;;;;;4.80;99.90;;;;;;4934162;29;19954;-86
2022/01/31 07:40:13;;;;;;;;;;;4.70;99.90;;;;;;4927235;29;19949;-88
2022/01/31 07:42:41;;;;;;;;;;;4.80;99.90;;;;;;4929139;29;19972;-89
2022/01/31 07:45:07;;;;;;;;;;;4.70;99.90;;;;;;4928286;29;20042;-88
2022/01/31 07:47:32;;;;;;;;;;;4.80;99.90;;;;;;4930357;29;20032;-88
2022/01/31 07:49:58;;;;;;;;;;;4.80;99.90;;;;;;4940695;29;20072;-93
2022/01/31 07:52:24;;;;;;;;;;;4.80;99.90;;;;;;4939005;29;20372;-89
2022/01/31 07:54:49;;;;;;;;;;;4.80;99.90;;;;;;4934470;28;20001;-91
2022/01/31 07:57:17;;;;;;;;;;;4.80;99.90;;;;;;4948757;29;20010;-92
2022/01/31 07:59:42;;;;;;;;;;;4.80;99.90;;;;;;4933247;29;19955;-94
2022/01/31 08:32:24;;;;;;;;;;;4.90;99.90;;;;;;3128425;23;20046;-86
2022/01/31 08:37:34;;;;;;;;;;;5.00;99.90;;;;;;4914445;29;19947;-85
2022/01/31 08:40:00;;;;;;;;;;;5.00;99.90;;;;;;4911761;29;20339;-85
2022/01/31 08:42:27;;;;;;;;;;;5.00;99.90;;;;;;4913952;29;20562;-86
2022/01/31 08:44:53;;;;;;;;;;;5.00;99.90;;;;;;4915859;29;19953;-86
2022/01/31 08:47:19;;;;;;;;;;;5.00;99.90;;;;;;4929539;29;19961;-86
2022/01/31 08:49:45;;;;;;;;;;;5.00;99.90;;;;;;4913805;29;19956;-86
2022/01/31 08:52:10;;;;;;;;;;;5.00;99.90;;;;;;4911552;29;19945;-85
2022/01/31 08:54:36;;;;;;;;;;;5.10;99.90;;;;;;4922934;29;20008;-85
2022/01/31 08:57:01;;;;;;;;;;;5.10;99.90;;;;;;4930679;29;19953;-86
2022/01/31 08:59:28;;;;;;;;;;;5.20;99.90;;;;;;4931777;29;20400;-86
2022/01/31 09:02:04;;;;;;;;;;;5.20;99.90;;;;;;4931005;29;19999;-87
2022/01/31 09:04:35;;;;;;;;;;;5.20;99.90;;;;;;4911196;29;20050;-85
2022/01/31 09:07:01;;;;;;;;;;;5.10;99.90;;;;;;4911570;29;19959;-85
2022/01/31 09:09:27;;;;;;;;;;;5.10;99.90;;;;;;4909567;29;19950;-87
2022/01/31 09:11:52;;;;;;;;;;;5.10;99.90;;;;;;4913335;29;19950;-88
2022/01/31 09:14:18;;;;;;;;;;;5.20;99.90;;;;;;4920862;29;19953;-86
2022/01/31 09:16:43;;;;;;;;;;;5.30;99.90;;;;;;4921536;29;19968;-86
2022/01/31 09:19:09;;;;;;;;;;;5.40;99.90;;;;;;4921779;29;19958;-90
2022/01/31 09:21:35;;;;;;;;;;;5.50;99.90;;;;;;4919546;29;20356;-86
2022/01/31 09:24:01;;;;;;;;;;;5.60;99.90;;;;;;4916015;29;19967;-86
2022/01/31 09:26:27;;;;;;;;;;;5.60;99.90;;;;;;4941284;29;20309;-86
2022/01/31 09:34:24;;;;;;;;;;;5.60;99.90;;;;;;5415005;23;20025;-85
2022/01/31 09:36:49;;;;;;;;;;;5.80;99.90;;;;;;4933862;29;20751;-88
2022/01/31 09:39:15;;;;;;;;;;;5.90;99.90;;;;;;4907464;29;19947;-88
2022/01/31 09:41:44;;;;;;;;;;;5.90;99.90;;;;;;4925844;29;19998;-88
2022/01/31 09:45:06;;;;;;;;;;;5.80;99.90;;;;;;4909547;29;20435;-87
2022/01/31 09:47:17;;;;;;;;;;;5.90;99.90;;;;;;4933684;29;19949;-87
2022/01/31 09:49:43;;;;;;;;;;;6.00;99.90;;;;;;4911205;29;20039;-88
2022/01/31 09:52:08;;;;;;;;;;;6.10;99.90;;;;;;4918456;29;19987;-88
2022/01/31 09:54:34;;;;;;;;;;;6.40;99.90;;;;;;4914133;29;19947;-92
2022/01/31 09:56:59;;;;;;;;;;;6.70;99.90;;;;;;4906947;29;20415;-85
2022/01/31 09:59:25;;;;;;;;;;;7.50;99.90;;;;;;4926086;29;19953;-89
2022/01/31 10:01:54;;;;;;;;;;;8.60;99.90;;;;;;4934917;29;19994;-86
2022/01/31 10:04:21;;;;;;;;;;;9.20;99.90;;;;;;4909456;29;20055;-86
2022/01/31 10:06:48;;;;;;;;;;;9.60;99.90;;;;;;4912848;29;20456;-86
2022/01/31 10:09:22;;;;;;;;;;;10.00;99.90;;;;;;4916813;29;20002;-88
2022/01/31 10:11:56;;;;;;;;;;;10.40;99.90;;;;;;4924654;29;20186;-90
2022/01/31 10:17:09;;;;;;;;;;;11.10;99.90;;;;;;4927583;29;19956;-88
2022/01/31 10:19:39;;;;;;;;;;;11.50;99.90;;;;;;4912067;29;20331;-90
2022/01/31 10:22:06;;;;;;;;;;;11.90;99.90;;;;;;4917536;29;19955;-92
2022/01/31 10:24:32;;;;;;;;;;;12.50;99.90;;;;;;4912675;29;19975;-89
2022/01/31 10:27:05;;;;;;;;;;;13.00;99.90;;;;;;4905227;29;20044;-91
2022/01/31 10:29:31;;;;;;;;;;;13.00;99.90;;;;;;4920432;29;20417;-89
2022/01/31 10:31:58;;;;;;;;;;;12.70;99.90;;;;;;4920288;29;19957;-90
2022/01/31 10:34:25;;;;;;;;;;;12.30;99.90;;;;;;4911427;29;19971;-90
2022/01/31 10:36:52;;;;;;;;;;;12.10;99.90;;;;;;4928212;29;19980;-90
2022/01/31 10:50:57;;;;;;;;;;;12.40;99.90;;;;;;4928003;29;19975;-83
2022/01/31 10:53:23;;;;;;;;;;;12.60;99.90;;;;;;4938659;29;19971;-91
2022/01/31 10:55:52;;;;;;;;;;;12.10;99.90;;;;;;4934557;29;20439;-87
2022/01/31 10:58:19;;;;;;;;;;;11.90;99.90;;;;;;4924129;29;20094;-88
2022/01/31 11:00:44;;;;;;;;;;;12.10;99.90;;;;;;4932204;29;20464;-90
2022/01/31 11:03:28;;;;;;;;;;;12.10;99.90;;;;;;4939314;29;20163;-89
2022/01/31 11:06:01;;;;;;;;;;;12.50;99.90;;;;;;4933808;29;19986;-86
2022/01/31 11:08:26;;;;;;;;;;;13.10;99.90;;;;;;4925602;29;19972;-83
2022/01/31 11:10:56;;;;;;;;;;;13.50;99.90;;;;;;4929921;29;20299;-87
2022/01/31 11:13:21;;;;;;;;;;;14.00;99.80;;;;;;4931746;29;20448;-92
2022/01/31 11:15:48;;;;;;;;;;;14.30;98.50;;;;;;4928427;29;20010;-87
2022/01/31 11:18:13;;;;;;;;;;;13.80;96.90;;;;;;4933109;29;20378;-87
2022/01/31 11:20:43;;;;;;;;;;;13.70;99.90;;;;;;4929140;29;19971;-88
2022/01/31 11:23:09;;;;;;;;;;;13.90;99.80;;;;;;4939840;29;19977;-89
2022/01/31 11:25:36;;;;;;;;;;;13.50;98.60;;;;;;4937420;29;19971;-94
2022/01/31 11:28:03;;;;;;;;;;;13.70;99.90;;;;;;4942842;29;21657;-89
2022/01/31 11:30:29;;;;;;;;;;;13.70;99.90;;;;;;4941843;29;19979;-93
2022/01/31 11:32:54;;;;;;;;;;;13.90;97.80;;;;;;4938921;29;20070;-90
2022/01/31 11:35:20;;;;;;;;;;;14.10;97.10;;;;;;4920419;29;20013;-91
2022/01/31 11:37:46;;;;;;;;;;;14.20;98.60;;;;;;4924811;29;20021;-96
2022/01/31 11:40:13;;;;;;;;;;;14.50;98.30;;;;;;4936857;29;19971;-92
2022/01/31 11:42:47;;;;;;;381.10;168.97;;;14.60;95.60;;;;;;4925457;29;20655;-88
2022/01/31 11:45:21;;;;;;;181.82;116.22;;;14.00;95.30;;;;;;4920512;29;20068;-91
2022/01/31 11:47:49;;;;;;;170.32;113.53;;;13.10;98.40;;;;;;4927749;29;20035;-87
2022/01/31 11:50:16;;;;;;;140.93;103.55;;;12.00;99.90;;;;;;4918941;29;20044;-92
2022/01/31 11:52:59;;;;;;;136.65;101.43;;;11.40;99.90;;;;;;4933864;29;20365;-89
2022/01/31 11:55:31;;;;;;;148.68;105.25;;;10.70;99.90;;;;;;4945287;29;20107;-91
2022/01/31 11:57:58;;;;;;;107.65;89.18;;;10.50;99.90;;;;;;4940081;29;20044;-90
2022/01/31 12:00:27;;;;;;;87.38;78.20;;;10.60;99.90;;;;;;4933763;29;20052;-91
2022/01/31 12:03:00;;;;;;;74.68;67.57;;;10.30;99.90;;;;;;4928890;29;20039;-94
2022/01/31 12:05:29;;;;;;;78.75;71.15;;;10.00;99.90;;;;;;4939232;29;20114;-90
2022/01/31 12:08:06;;;;;;;71.20;64.75;;;9.90;99.90;;;;;;4936606;29;20091;-91
2022/01/31 12:10:37;;;;;;;80.50;72.57;;;9.60;99.90;;;;;;4921237;29;20048;-86
2022/01/31 12:15:54;;;;;;;80.28;72.47;;;9.20;99.90;;;;;;4921899;29;20055;-85
2022/01/31 12:24:08;;;;;;;77.78;70.30;;;8.70;99.90;;;;;;4925651;29;20048;-88
2022/01/31 12:26:39;;;;;;;77.22;69.90;;;8.90;99.90;;;;;;4926399;29;20342;-87
2022/01/31 12:29:10;;;;;;;70.00;63.70;;;9.00;99.90;;;;;;4932387;29;20078;-90
2022/01/31 12:31:38;;;;;;;77.18;69.88;;;9.00;99.90;;;;;;4928850;29;20099;-87
2022/01/31 12:34:15;;;;;;;73.25;66.47;;;9.20;99.90;;;;;;4930465;29;20059;-86
2022/01/31 12:36:40;;;;;;;81.45;73.45;;;9.80;99.90;;;;;;4916482;29;20067;-90
2022/01/31 12:39:28;;;;;;;78.47;70.97;;;10.10;99.90;;;;;;4931283;29;20043;-87
2022/01/31 12:42:00;;;;;;;77.35;70.00;;;10.00;99.90;;;;;;4918832;29;20051;-89
2022/01/31 12:44:29;;;;;;;75.55;68.47;;;9.70;99.90;;;;;;4930862;29;20052;-86
2022/01/31 12:47:09;;;;;;;76.90;69.63;;;9.40;99.90;;;;;;4909869;29;20369;-85
2022/01/31 12:49:35;;;;;;;77.88;70.50;;;9.10;99.90;;;;;;4918080;29;20142;-87
2022/01/31 12:52:04;;;;;;;76.22;69.07;;;8.90;99.90;;;;;;4918948;29;20130;-92
2022/01/31 12:54:30;;;;;;;77.30;69.97;;;8.70;99.90;;;;;;4917670;29;20114;-86
2022/01/31 12:59:32;;;;;;;80.85;72.93;;;8.50;99.90;;;;;;5129305;23;20127;-89
2022/01/31 13:01:58;;;;;;;82.10;73.97;;;8.30;99.90;;;;;;4916819;29;20449;-85
2022/01/31 13:04:28;;;;;;;81.07;73.07;;;8.30;99.90;;;;;;4908241;29;20127;-88
2022/01/31 13:07:01;;;;;;;81.28;73.32;;;8.20;99.90;;;;;;4906957;29;20035;-84
2022/01/31 13:09:31;;;;;;;80.57;72.68;;;8.20;99.90;;;;;;4907592;29;20544;-83
2022/01/31 13:12:11;;;;;;;79.20;71.53;;;8.10;99.90;;;;;;4902849;29;20116;-86
2022/01/31 13:14:40;;;;;;;78.93;71.32;;;8.00;99.90;;;;;;4907448;29;20036;-87
2022/01/31 13:17:14;;;;;;;79.68;71.93;;;8.00;99.90;;;;;;4912615;29;20063;-85
2022/01/31 13:20:05;;;;;;;79.13;71.47;;;7.90;99.90;;;;;;5527836;23;20440;-84
2022/01/31 13:22:41;;;;;;;77.90;70.40;;;7.90;99.90;;;;;;4931955;29;20078;-84
2022/01/31 13:25:14;;;;;;;77.45;70.03;;;7.80;99.90;;;;;;4936908;28;20046;-84
2022/01/31 13:27:43;;;;;;;76.63;69.40;;;7.70;99.90;;;;;;4921625;29;20107;-84
2022/01/31 13:30:10;;;;;;;77.82;70.35;;;7.60;99.90;;;;;;4936843;29;20071;-83
2022/01/31 13:32:37;;;;;;;77.35;69.90;;;7.60;99.90;;;;;;4919342;29;20126;-90
2022/01/31 13:35:17;;;;;;;76.40;69.15;;;7.70;99.90;;;;;;4930767;29;20039;-91
2022/01/31 13:38:03;;;;;;;76.90;69.60;;;7.70;99.90;;;;;;4919713;29;20446;-87
2022/01/31 13:40:52;;;;;;;76.07;68.93;;;7.80;99.90;;;;;;4918870;29;20075;-86
2022/01/31 13:43:23;;;;;;;72.82;66.07;;;7.80;99.90;;;;;;4922982;29;20066;-89
2022/01/31 13:49:10;;;;;;;73.15;66.43;;;7.70;99.90;;;;;;4915536;29;20055;-83
2022/01/31 13:51:30;;;;;;;72.80;66.15;;;7.70;99.90;;;;;;4919283;29;20059;-86
2022/01/31 13:53:56;;;;;;;;;;;7.60;99.90;;;;;;4929225;29;20066;-87
2022/01/31 13:56:22;;;;;;;69.70;63.45;;;7.60;99.90;;;;;;4935002;28;19930;-84
2022/01/31 13:59:01;;;;;;;72.43;65.88;;;7.60;99.90;;;;;;4928943;29;20074;-86
2022/01/31 14:01:27;;;;;;;71.60;65.10;;;7.60;99.90;;;;;;4927469;28;20043;-85
2022/01/31 14:09:07;;;;;;;77.28;69.97;;;7.50;99.90;;;;;;5924945;23;20025;-83
2022/01/31 14:11:44;;;;;;;71.20;64.75;;;7.50;99.90;;;;;;4914606;29;20126;-84
2022/01/31 14:14:10;;;;;;;72.00;65.43;;;7.50;99.90;;;;;;4910603;29;20075;-83
2022/01/31 14:16:39;;;;;;;69.55;63.33;;;7.40;99.90;;;;;;4917416;29;20135;-83
2022/01/31 14:19:14;;;;;;;65.40;59.70;;;7.30;99.90;;;;;;4915956;29;20051;-88
2022/01/31 14:21:42;;;;;;;61.00;55.90;;;7.20;99.90;;;;;;4916679;29;20192;-83
2022/01/31 14:24:08;;;;;;;60.90;55.78;;;7.10;99.90;;;;;;4914078;29;20492;-81
2022/01/31 14:26:40;;;;;;;62.03;56.78;;;7.10;99.90;;;;;;4918930;29;20051;-84
2022/01/31 14:29:14;;;;;;;60.65;55.60;;;7.00;99.90;;;;;;4918099;29;20237;-90
2022/01/31 14:31:43;;;;;;;58.05;53.22;;;7.00;99.90;;;;;;4918101;29;20102;-84
2022/01/31 14:34:11;;;;;;;59.55;54.65;;;6.90;99.90;;;;;;4911813;29;20044;-86
2022/01/31 14:36:40;;;;;;;59.42;54.58;;;6.90;99.90;;;;;;4915707;29;20044;-82
2022/01/31 14:42:06;;;;;;;59.03;54.15;;;6.80;99.90;;;;;;4933400;29;20138;-87
2022/01/31 14:49:51;;;;;;;54.85;50.55;;;6.60;99.90;;;;;;4936874;29;20044;-87
2022/01/31 14:52:18;;;;;;;60.40;55.42;;;6.60;99.90;;;;;;4923224;29;20471;-88
2022/01/31 14:55:00;;;;;;;56.47;51.92;;;6.50;99.90;;;;;;4918112;29;20131;-85
2022/01/31 14:57:25;;;;;;;56.45;51.90;;;6.50;99.90;;;;;;4921967;29;20048;-83
2022/01/31 14:59:51;;;;;;;57.38;52.80;;;6.50;99.90;;;;;;4923042;29;20043;-84
2022/01/31 15:02:17;;;;;;;51.17;47.30;;;6.40;99.90;;;;;;4937793;29;20098;-83
2022/01/31 15:04:42;;;;;;;;;;;6.40;99.90;;;;;;4919774;29;20059;-83
2022/01/31 15:07:08;;;;;;;;;;;6.30;99.90;;;;;;4916843;29;20389;-83
2022/01/31 15:09:34;;;;;;;74.20;67.20;;;6.30;99.90;;;;;;4910817;29;20583;-87
2022/01/31 15:12:00;;;;;;;;;;;6.30;99.90;;;;;;4929506;29;20075;-84
2022/01/31 15:14:26;;;;;;;78.85;71.05;;;6.20;99.90;;;;;;4924325;29;20532;-86
2022/01/31 15:16:52;;;;;;;51.00;47.25;;;6.10;99.90;;;;;;4922262;29;20051;-83
2022/01/31 15:19:20;;;;;;;47.90;44.42;;;6.10;99.90;;;;;;4921530;29;20488;-86
2022/01/31 15:21:45;;;;;;;49.05;45.47;;;6.00;99.90;;;;;;4924676;29;20457;-83
2022/01/31 15:24:13;;;;;;;64.53;59.37;;;6.00;99.90;;;;;;4925203;29;20075;-84
2022/01/31 15:26:39;;;;;;;54.20;50.08;;;5.90;99.90;;;;;;4925162;29;20126;-86